createdAt,value
2018-03-28T00:00:27.215Z,22.45
2018-03-28T00:01:36.540Z,22.37
2018-03-28T00:02:45.286Z,22.47
2018-03-28T00:03:54.434Z,22.46
2018-03-28T00:05:03.492Z,22.37
2018-03-28T00:06:12.878Z,22.39
2018-03-28T00:07:22.493Z,22.39
2018-03-28T00:08:31.509Z,22.4
2018-03-28T00:09:40.278Z,22.39
2018-03-28T00:10:49.846Z,22.45
2018-03-28T00:11:59.347Z,22.37
2018-03-28T00:13:09.008Z,22.42
2018-03-28T00:14:19.142Z,22.37
2018-03-28T00:15:27.865Z,22.39
2018-03-28T00:16:37.438Z,22.31
2018-03-28T00:17:46.531Z,22.35
2018-03-28T00:18:55.817Z,22.37
2018-03-28T00:20:05.190Z,22.37
2018-03-28T00:21:14.803Z,22.33
2018-03-28T00:22:23.624Z,22.36
2018-03-28T00:23:32.689Z,22.35
2018-03-28T00:24:42.075Z,22.31
2018-03-28T00:25:50.868Z,22.35
2018-03-28T00:26:59.591Z,22.39
2018-03-28T00:28:08.733Z,22.27
2018-03-28T00:29:17.846Z,22.31
2018-03-28T00:30:26.949Z,22.27
2018-03-28T00:31:36.580Z,22.31
2018-03-28T00:32:45.575Z,22.31
2018-03-28T00:33:55.007Z,22.37
2018-03-28T00:35:04.132Z,22.25
2018-03-28T00:36:13.718Z,22.33
2018-03-28T00:37:22.800Z,22.31
2018-03-28T00:38:31.814Z,22.25
2018-03-28T00:39:41.250Z,22.24
2018-03-28T00:40:50.437Z,22.3
2018-03-28T00:41:59.975Z,22.27
2018-03-28T00:43:09.578Z,22.3
2018-03-28T00:44:18.695Z,22.24
2018-03-28T00:45:27.819Z,22.28
2018-03-28T00:46:37.290Z,22.25
2018-03-28T00:47:46.114Z,22.3
2018-03-28T00:48:55.022Z,22.2
2018-03-28T00:50:04.139Z,22.25
2018-03-28T00:51:13.574Z,22.22
2018-03-28T00:52:23.214Z,22.24
2018-03-28T00:53:32.589Z,22.22
2018-03-28T00:54:42.412Z,22.27
2018-03-28T00:55:51.225Z,22.27
2018-03-28T00:56:59.998Z,22.25
2018-03-28T00:58:09.277Z,22.22
2018-03-28T00:59:18.174Z,22.18
2018-03-28T01:00:27.481Z,22.2
2018-03-28T01:01:36.270Z,22.25
2018-03-28T01:02:45.517Z,22.24
2018-03-28T01:03:54.612Z,22.21
2018-03-28T01:05:03.643Z,22.24
2018-03-28T01:06:12.950Z,22.22
2018-03-28T01:07:22.083Z,22.15
2018-03-28T01:08:31.358Z,22.3
2018-03-28T01:09:40.151Z,22.33
2018-03-28T01:10:49.121Z,22.2
2018-03-28T01:11:58.285Z,22.25
2018-03-28T01:13:07.346Z,22.2
2018-03-28T01:14:16.710Z,22.21
2018-03-28T01:15:25.912Z,22.14
2018-03-28T01:16:34.847Z,22.21
2018-03-28T01:17:43.832Z,22.2
2018-03-28T01:18:53.084Z,22.18
2018-03-28T01:20:02.105Z,22.21
2018-03-28T01:21:11.542Z,22.2
2018-03-28T01:22:20.714Z,22.21
2018-03-28T01:23:29.572Z,22.18
2018-03-28T01:24:38.904Z,22.21
2018-03-28T01:25:47.718Z,22.2
2018-03-28T01:26:56.702Z,22.22
2018-03-28T01:28:05.696Z,22.24
2018-03-28T01:29:14.998Z,22.22
2018-03-28T01:30:23.739Z,22.18
2018-03-28T01:31:33.106Z,22.2
2018-03-28T01:32:42.222Z,22.21
2018-03-28T01:33:51.244Z,22.17
2018-03-28T01:35:00.322Z,22.14
2018-03-28T01:36:09.364Z,22.2
2018-03-28T01:37:18.457Z,22.24
2018-03-28T01:38:27.640Z,22.21
2018-03-28T01:39:36.417Z,22.22
2018-03-28T01:40:45.534Z,22.15
2018-03-28T01:41:54.872Z,22.1
2018-03-28T01:43:04.254Z,22.14
2018-03-28T01:44:13.802Z,22.2
2018-03-28T01:45:22.845Z,22.18
2018-03-28T01:46:32.020Z,22.14
2018-03-28T01:47:41.515Z,22.17
2018-03-28T01:48:50.323Z,22.1
2018-03-28T01:49:59.433Z,22.12
2018-03-28T01:51:08.551Z,22.03
2018-03-28T01:52:17.960Z,22.14
2018-03-28T01:53:27.108Z,22.02
2018-03-28T01:54:36.469Z,22.05
2018-03-28T01:55:45.811Z,22.07
2018-03-28T01:56:55.152Z,22.12
2018-03-28T01:58:04.305Z,22.07
2018-03-28T01:59:13.476Z,22.03
2018-03-28T02:00:23.212Z,22.05
2018-03-28T02:01:32.397Z,22.06
2018-03-28T02:02:41.511Z,22.06
2018-03-28T02:03:50.942Z,22.05
2018-03-28T02:05:00.321Z,22.03
2018-03-28T02:06:09.688Z,22.07
2018-03-28T02:07:18.494Z,22.05
2018-03-28T02:08:27.578Z,21.99
2018-03-28T02:09:36.379Z,22.1
2018-03-28T02:10:45.459Z,22.07
2018-03-28T02:11:54.263Z,22.09
2018-03-28T02:13:03.090Z,22.07
2018-03-28T02:14:12.464Z,21.99
2018-03-28T02:15:22.019Z,21.94
2018-03-28T02:16:31.348Z,21.98
2018-03-28T02:17:40.760Z,22
2018-03-28T02:18:50.125Z,22.03
2018-03-28T02:19:59.329Z,22.03
2018-03-28T02:21:08.663Z,21.98
2018-03-28T02:22:17.484Z,22.05
2018-03-28T02:23:26.360Z,21.94
2018-03-28T02:24:35.359Z,22
2018-03-28T02:25:44.456Z,21.96
2018-03-28T02:26:54.294Z,22.05
2018-03-28T02:28:04.142Z,21.96
2018-03-28T02:29:13.528Z,22
2018-03-28T02:30:22.511Z,22
2018-03-28T02:31:31.786Z,21.96
2018-03-28T02:32:41.210Z,21.92
2018-03-28T02:33:50.783Z,22
2018-03-28T02:35:00.040Z,22
2018-03-28T02:36:09.328Z,21.98
2018-03-28T02:37:18.614Z,21.96
2018-03-28T02:38:28.197Z,21.96
2018-03-28T02:39:37.455Z,21.96
2018-03-28T02:40:47.084Z,21.96
2018-03-28T02:41:56.794Z,21.94
2018-03-28T02:43:05.919Z,21.99
2018-03-28T02:44:15.181Z,21.94
2018-03-28T02:45:24.242Z,21.91
2018-03-28T02:46:33.577Z,21.9
2018-03-28T02:47:42.914Z,21.99
2018-03-28T02:48:52.551Z,21.98
2018-03-28T02:50:02.050Z,21.94
2018-03-28T02:51:11.125Z,21.86
2018-03-28T02:52:20.523Z,22.03
2018-03-28T02:53:29.364Z,21.98
2018-03-28T02:54:39.074Z,22
2018-03-28T02:55:47.925Z,21.98
2018-03-28T02:56:56.639Z,21.9
2018-03-28T02:58:06.051Z,21.94
2018-03-28T02:59:15.084Z,21.94
2018-03-28T03:00:24.211Z,21.98
2018-03-28T03:01:33.603Z,21.98
2018-03-28T03:02:42.942Z,21.94
2018-03-28T03:03:52.191Z,21.86
2018-03-28T03:05:00.995Z,21.98
2018-03-28T03:06:10.480Z,22
2018-03-28T03:07:19.477Z,21.9
2018-03-28T03:08:28.847Z,21.98
2018-03-28T03:09:38.253Z,21.88
2018-03-28T03:10:47.372Z,21.9
2018-03-28T03:11:56.500Z,21.99
2018-03-28T03:13:06.169Z,21.9
2018-03-28T03:14:15.575Z,21.94
2018-03-28T03:15:24.697Z,21.88
2018-03-28T03:16:33.706Z,21.96
2018-03-28T03:17:42.497Z,21.91
2018-03-28T03:18:51.654Z,21.9
2018-03-28T03:20:00.988Z,21.88
2018-03-28T03:21:10.095Z,21.88
2018-03-28T03:22:19.181Z,21.92
2018-03-28T03:23:28.459Z,21.9
2018-03-28T03:24:37.734Z,21.84
2018-03-28T03:25:46.794Z,21.88
2018-03-28T03:26:56.025Z,21.83
2018-03-28T03:28:05.081Z,21.82
2018-03-28T03:29:14.269Z,21.91
2018-03-28T03:30:23.288Z,21.92
2018-03-28T03:31:32.874Z,21.94
2018-03-28T03:32:42.729Z,21.96
2018-03-28T03:33:52.409Z,21.86
2018-03-28T03:35:01.482Z,21.9
2018-03-28T03:36:10.296Z,21.92
2018-03-28T03:37:19.743Z,21.91
2018-03-28T03:38:28.592Z,21.88
2018-03-28T03:39:37.655Z,21.91
2018-03-28T03:40:46.492Z,21.98
2018-03-28T03:41:55.775Z,21.9
2018-03-28T03:43:05.033Z,21.88
2018-03-28T03:44:14.327Z,21.79
2018-03-28T03:45:23.959Z,21.98
2018-03-28T03:46:33.120Z,21.84
2018-03-28T03:47:42.253Z,21.92
2018-03-28T03:48:51.118Z,21.86
2018-03-28T03:50:00.269Z,21.9
2018-03-28T03:51:09.344Z,21.86
2018-03-28T03:52:19.099Z,21.96
2018-03-28T03:53:28.133Z,21.84
2018-03-28T03:54:37.072Z,21.84
2018-03-28T03:55:46.395Z,21.77
2018-03-28T03:56:55.686Z,21.9
2018-03-28T03:58:05.116Z,21.82
2018-03-28T03:59:14.873Z,21.88
2018-03-28T04:00:24.305Z,21.83
2018-03-28T04:01:33.620Z,21.8
2018-03-28T04:02:42.821Z,21.84
2018-03-28T04:03:51.740Z,21.74
2018-03-28T04:05:01.177Z,21.74
2018-03-28T04:06:10.900Z,21.91
2018-03-28T04:07:19.961Z,21.72
2018-03-28T04:08:29.084Z,21.79
2018-03-28T04:09:38.167Z,21.79
2018-03-28T04:10:47.216Z,21.71
2018-03-28T04:11:56.632Z,21.77
2018-03-28T04:13:05.658Z,21.84
2018-03-28T04:14:15.050Z,21.82
2018-03-28T04:15:24.078Z,21.75
2018-03-28T04:16:32.872Z,21.75
2018-03-28T04:17:41.930Z,21.82
2018-03-28T04:18:51.841Z,21.86
2018-03-28T04:20:00.696Z,21.77
2018-03-28T04:21:09.817Z,21.83
2018-03-28T04:22:19.243Z,21.82
2018-03-28T04:23:28.523Z,21.82
2018-03-28T04:24:37.717Z,21.8
2018-03-28T04:25:47.318Z,21.82
2018-03-28T04:26:56.396Z,21.84
2018-03-28T04:28:05.205Z,21.79
2018-03-28T04:29:13.992Z,21.8
2018-03-28T04:30:23.390Z,21.79
2018-03-28T04:31:33.002Z,21.79
2018-03-28T04:32:42.074Z,21.79
2018-03-28T04:33:51.369Z,21.74
2018-03-28T04:35:00.780Z,21.74
2018-03-28T04:36:09.557Z,21.77
2018-03-28T04:37:18.576Z,21.75
2018-03-28T04:38:27.364Z,21.72
2018-03-28T04:39:36.128Z,21.69
2018-03-28T04:40:45.395Z,21.77
2018-03-28T04:41:54.806Z,21.77
2018-03-28T04:43:04.481Z,21.75
2018-03-28T04:44:13.735Z,21.79
2018-03-28T04:45:22.861Z,21.77
2018-03-28T04:46:32.294Z,21.75
2018-03-28T04:47:41.841Z,21.75
2018-03-28T04:48:50.904Z,21.75
2018-03-28T04:49:59.979Z,21.74
2018-03-28T04:51:08.971Z,21.71
2018-03-28T04:52:17.754Z,21.77
2018-03-28T04:53:26.569Z,21.72
2018-03-28T04:54:35.798Z,21.69
2018-03-28T04:55:44.877Z,21.72
2018-03-28T04:56:54.192Z,21.72
2018-03-28T04:58:02.905Z,21.74
2018-03-28T04:59:12.479Z,21.67
2018-03-28T05:00:21.835Z,21.75
2018-03-28T05:01:30.849Z,21.67
2018-03-28T05:02:40.400Z,21.74
2018-03-28T05:03:49.668Z,21.67
2018-03-28T05:04:58.717Z,21.71
2018-03-28T05:06:07.930Z,21.74
2018-03-28T05:07:17.235Z,21.72
2018-03-28T05:08:26.318Z,21.74
2018-03-28T05:09:35.663Z,21.74
2018-03-28T05:10:44.807Z,21.74
2018-03-28T05:11:53.940Z,21.71
2018-03-28T05:13:03.062Z,21.69
2018-03-28T05:14:12.240Z,21.65
2018-03-28T05:15:21.026Z,21.67
2018-03-28T05:16:30.162Z,21.69
2018-03-28T05:17:39.209Z,21.68
2018-03-28T05:18:48.984Z,21.74
2018-03-28T05:19:58.053Z,21.69
2018-03-28T05:21:07.346Z,21.74
2018-03-28T05:22:16.758Z,21.72
2018-03-28T05:23:26.074Z,21.75
2018-03-28T05:24:35.094Z,21.77
2018-03-28T05:25:44.460Z,21.72
2018-03-28T05:26:54.505Z,21.82
2018-03-28T05:28:03.618Z,21.77
2018-03-28T05:29:12.626Z,21.72
2018-03-28T05:30:21.852Z,21.74
2018-03-28T05:31:31.443Z,21.77
2018-03-28T05:32:40.446Z,21.65
2018-03-28T05:33:49.455Z,21.77
2018-03-28T05:34:58.962Z,21.71
2018-03-28T05:36:08.090Z,21.79
2018-03-28T05:37:17.155Z,21.77
2018-03-28T05:38:26.398Z,21.74
2018-03-28T05:39:35.403Z,21.69
2018-03-28T05:40:45.091Z,21.69
2018-03-28T05:41:53.941Z,21.69
2018-03-28T05:43:03.164Z,21.69
2018-03-28T05:44:11.984Z,21.65
2018-03-28T05:45:21.392Z,21.65
2018-03-28T05:46:30.510Z,21.68
2018-03-28T05:47:39.651Z,21.68
2018-03-28T05:48:48.738Z,21.67
2018-03-28T05:49:58.030Z,21.67
2018-03-28T05:51:07.404Z,21.68
2018-03-28T05:52:16.412Z,21.64
2018-03-28T05:53:25.667Z,21.64
2018-03-28T05:54:35.010Z,21.67
2018-03-28T05:55:44.044Z,21.68
2018-03-28T05:56:53.867Z,21.61
2018-03-28T05:58:03.711Z,21.64
2018-03-28T05:59:12.995Z,21.53
2018-03-28T06:00:22.296Z,21.52
2018-03-28T06:01:31.608Z,21.64
2018-03-28T06:02:41.277Z,21.52
2018-03-28T06:03:50.321Z,21.61
2018-03-28T06:04:59.366Z,21.61
2018-03-28T06:06:08.132Z,21.53
2018-03-28T06:07:17.353Z,21.5
2018-03-28T06:08:26.369Z,21.53
2018-03-28T06:09:35.141Z,21.53
2018-03-28T06:10:44.719Z,21.56
2018-03-28T06:11:53.788Z,21.64
2018-03-28T06:13:03.060Z,21.64
2018-03-28T06:14:12.369Z,21.58
2018-03-28T06:15:21.497Z,21.77
2018-03-28T06:16:30.587Z,21.74
2018-03-28T06:17:39.418Z,21.96
2018-03-28T06:18:48.211Z,21.94
2018-03-28T06:19:57.787Z,22.09
2018-03-28T06:21:07.098Z,22.14
2018-03-28T06:22:16.361Z,22.17
2018-03-28T06:23:25.143Z,22.27
2018-03-28T06:24:34.218Z,22.27
2018-03-28T06:25:43.298Z,22.39
2018-03-28T06:26:52.079Z,22.46
2018-03-28T06:28:01.103Z,22.45
2018-03-28T06:29:10.153Z,22.6
2018-03-28T06:30:19.740Z,22.62
2018-03-28T06:31:29.298Z,22.61
2018-03-28T06:32:38.397Z,22.65
2018-03-28T06:33:47.668Z,22.68
2018-03-28T06:34:56.812Z,22.7
2018-03-28T06:36:05.954Z,22.73
2018-03-28T06:37:14.768Z,22.77
2018-03-28T06:38:23.828Z,22.83
2018-03-28T06:39:33.042Z,22.97
2018-03-28T06:40:42.396Z,22.97
2018-03-28T06:41:51.447Z,23.02
2018-03-28T06:43:00.485Z,22.98
2018-03-28T06:44:10.116Z,23.1
2018-03-28T06:45:19.548Z,23.12
2018-03-28T06:46:28.638Z,23.12
2018-03-28T06:47:37.404Z,23.04
2018-03-28T06:48:46.226Z,23.15
2018-03-28T06:49:55.014Z,23.15
2018-03-28T06:51:04.012Z,23.19
2018-03-28T06:52:13.264Z,23.19
2018-03-28T06:53:22.338Z,23.19
2018-03-28T06:54:31.995Z,23.15
2018-03-28T06:55:41.300Z,23.2
2018-03-28T06:56:50.853Z,23.17
2018-03-28T06:57:59.932Z,23.17
2018-03-28T06:59:08.688Z,23.16
2018-03-28T07:00:17.402Z,23.16
2018-03-28T07:01:26.302Z,23.05
2018-03-28T07:02:35.784Z,23.16
2018-03-28T07:03:44.579Z,23.13
2018-03-28T07:04:53.716Z,23.07
2018-03-28T07:06:03.020Z,23.05
2018-03-28T07:07:12.113Z,23.09
2018-03-28T07:08:21.167Z,23
2018-03-28T07:09:29.948Z,23.07
2018-03-28T07:10:39.472Z,23.09
2018-03-28T07:11:48.561Z,23.01
2018-03-28T07:12:57.506Z,22.98
2018-03-28T07:14:06.561Z,22.95
2018-03-28T07:15:16.140Z,22.91
2018-03-28T07:16:25.254Z,22.92
2018-03-28T07:17:34.610Z,22.95
2018-03-28T07:18:43.452Z,22.94
2018-03-28T07:19:52.623Z,22.91
2018-03-28T07:21:01.384Z,22.92
2018-03-28T07:22:10.434Z,22.85
2018-03-28T07:23:19.421Z,22.86
2018-03-28T07:24:28.202Z,22.88
2018-03-28T07:25:37.321Z,22.88
2018-03-28T07:26:46.031Z,22.86
2018-03-28T07:27:55.138Z,22.8
2018-03-28T07:29:04.767Z,22.82
2018-03-28T07:30:13.928Z,22.82
2018-03-28T07:31:22.825Z,22.82
2018-03-28T07:32:31.930Z,22.75
2018-03-28T07:33:40.822Z,22.73
2018-03-28T07:34:49.774Z,22.7
2018-03-28T07:35:58.984Z,22.75
2018-03-28T07:37:08.368Z,22.73
2018-03-28T07:38:17.525Z,22.72
2018-03-28T07:39:27.573Z,22.73
2018-03-28T07:40:37.311Z,22.7
2018-03-28T07:41:47.591Z,22.55
2018-03-28T07:42:56.697Z,22.6
2018-03-28T07:44:05.801Z,22.68
2018-03-28T07:45:15.290Z,22.6
2018-03-28T07:46:24.768Z,22.67
2018-03-28T07:47:33.910Z,22.62
2018-03-28T07:48:43.413Z,22.61
2018-03-28T07:49:52.788Z,22.64
2018-03-28T07:51:01.717Z,22.57
2018-03-28T07:52:11.005Z,22.58
2018-03-28T07:53:19.906Z,22.64
2018-03-28T07:54:29.080Z,22.54
2018-03-28T07:55:37.921Z,22.61
2018-03-28T07:56:47.429Z,22.57
2018-03-28T07:57:56.379Z,22.57
2018-03-28T07:59:05.384Z,22.58
2018-03-28T08:00:14.847Z,22.57
2018-03-28T08:01:23.618Z,22.54
2018-03-28T08:02:32.406Z,22.57
2018-03-28T08:03:42.071Z,22.58
2018-03-28T08:04:51.321Z,22.61
2018-03-28T08:06:00.326Z,22.58
2018-03-28T08:07:09.534Z,22.52
2018-03-28T08:08:18.973Z,22.52
2018-03-28T08:09:28.559Z,22.51
2018-03-28T08:10:38.251Z,22.4
2018-03-28T08:11:47.622Z,22.42
2018-03-28T08:12:56.749Z,22.39
2018-03-28T08:14:05.989Z,22.4
2018-03-28T08:15:15.324Z,22.4
2018-03-28T08:16:24.463Z,22.46
2018-03-28T08:17:33.840Z,22.35
2018-03-28T08:18:42.698Z,22.42
2018-03-28T08:19:51.698Z,22.46
2018-03-28T08:21:00.968Z,22.4
2018-03-28T08:22:09.903Z,22.45
2018-03-28T08:23:19.458Z,22.45
2018-03-28T08:24:28.867Z,22.45
2018-03-28T08:25:38.237Z,22.35
2018-03-28T08:26:47.198Z,22.45
2018-03-28T08:27:56.510Z,22.42
2018-03-28T08:29:06.102Z,22.36
2018-03-28T08:30:15.051Z,22.39
2018-03-28T08:31:24.351Z,22.4
2018-03-28T08:32:33.163Z,22.39
2018-03-28T08:33:42.159Z,22.39
2018-03-28T08:34:51.076Z,22.39
2018-03-28T08:36:00.074Z,22.37
2018-03-28T08:37:09.190Z,22.39
2018-03-28T08:38:18.539Z,22.36
2018-03-28T08:39:27.567Z,22.33
2018-03-28T08:40:36.781Z,22.31
2018-03-28T08:41:45.802Z,22.36
2018-03-28T08:42:54.680Z,22.35
2018-03-28T08:44:03.620Z,22.33
2018-03-28T08:45:12.677Z,22.35
2018-03-28T08:46:21.663Z,22.31
2018-03-28T08:47:31.220Z,22.39
2018-03-28T08:48:40.399Z,22.45
2018-03-28T08:49:49.826Z,22.31
2018-03-28T08:50:59.130Z,22.3
2018-03-28T08:52:07.883Z,22.31
2018-03-28T08:53:17.215Z,22.35
2018-03-28T08:54:25.943Z,22.35
2018-03-28T08:55:34.983Z,22.35
2018-03-28T08:56:43.978Z,22.36
2018-03-28T08:57:52.994Z,22.25
2018-03-28T08:59:02.254Z,22.37
2018-03-28T09:00:11.501Z,22.4
2018-03-28T09:01:20.895Z,22.39
2018-03-28T09:02:29.678Z,22.43
2018-03-28T09:03:38.501Z,22.47
2018-03-28T09:04:47.815Z,22.46
2018-03-28T09:05:56.915Z,22.42
2018-03-28T09:07:06.159Z,22.46
2018-03-28T09:08:15.073Z,22.47
2018-03-28T09:09:24.225Z,22.45
2018-03-28T09:10:33.302Z,22.57
2018-03-28T09:11:42.829Z,22.52
2018-03-28T09:12:51.546Z,22.55
2018-03-28T09:14:00.911Z,22.57
2018-03-28T09:15:10.137Z,22.54
2018-03-28T09:16:19.220Z,22.57
2018-03-28T09:17:28.444Z,22.57
2018-03-28T09:18:38.173Z,22.55
2018-03-28T09:19:47.410Z,22.57
2018-03-28T09:20:56.966Z,22.58
2018-03-28T09:22:05.698Z,22.6
2018-03-28T09:23:15.085Z,22.61
2018-03-28T09:24:24.233Z,22.58
2018-03-28T09:25:33.232Z,22.58
2018-03-28T09:26:42.219Z,22.57
2018-03-28T09:27:51.506Z,22.62
2018-03-28T09:29:00.748Z,22.52
2018-03-28T09:30:10.491Z,22.65
2018-03-28T09:31:19.777Z,22.64
2018-03-28T09:32:28.797Z,22.58
2018-03-28T09:33:38.498Z,22.55
2018-03-28T09:34:47.230Z,22.55
2018-03-28T09:35:56.461Z,22.62
2018-03-28T09:37:05.221Z,22.7
2018-03-28T09:38:14.039Z,22.52
2018-03-28T09:39:23.581Z,22.65
2018-03-28T09:40:33.402Z,22.58
2018-03-28T09:41:42.757Z,22.61
2018-03-28T09:42:52.073Z,22.54
2018-03-28T09:44:01.197Z,22.49
2018-03-28T09:45:10.837Z,22.55
2018-03-28T09:46:19.872Z,22.62
2018-03-28T09:47:28.878Z,22.57
2018-03-28T09:48:38.277Z,22.57
2018-03-28T09:49:47.335Z,22.57
2018-03-28T09:50:56.413Z,22.55
2018-03-28T09:52:05.654Z,22.61
2018-03-28T09:53:15.316Z,22.55
2018-03-28T09:54:24.403Z,22.62
2018-03-28T09:55:33.819Z,22.57
2018-03-28T09:56:43.137Z,22.52
2018-03-28T09:57:52.700Z,22.47
2018-03-28T09:59:02.025Z,22.47
2018-03-28T10:00:11.318Z,22.46
2018-03-28T10:01:20.741Z,22.57
2018-03-28T10:02:29.876Z,22.54
2018-03-28T10:03:39.412Z,22.43
2018-03-28T10:04:48.802Z,22.55
2018-03-28T10:05:57.851Z,22.43
2018-03-28T10:07:06.825Z,22.47
2018-03-28T10:08:15.488Z,22.42
2018-03-28T10:09:24.519Z,22.46
2018-03-28T10:10:33.297Z,22.46
2018-03-28T10:11:42.354Z,22.43
2018-03-28T10:12:52.062Z,22.47
2018-03-28T10:14:01.128Z,22.4
2018-03-28T10:15:10.426Z,22.46
2018-03-28T10:16:19.524Z,22.43
2018-03-28T10:17:28.554Z,22.42
2018-03-28T10:18:37.629Z,22.45
2018-03-28T10:19:46.747Z,22.43
2018-03-28T10:20:56.392Z,22.46
2018-03-28T10:22:05.442Z,22.43
2018-03-28T10:23:14.889Z,22.45
2018-03-28T10:24:23.735Z,22.49
2018-03-28T10:25:32.892Z,22.4
2018-03-28T10:26:42.246Z,22.47
2018-03-28T10:27:52.006Z,22.4
2018-03-28T10:29:01.054Z,22.43
2018-03-28T10:30:10.426Z,22.43
2018-03-28T10:31:19.225Z,22.45
2018-03-28T10:32:28.066Z,22.36
2018-03-28T10:33:37.645Z,22.37
2018-03-28T10:34:46.603Z,22.4
2018-03-28T10:35:56.022Z,22.37
2018-03-28T10:37:04.743Z,22.37
2018-03-28T10:38:14.128Z,22.39
2018-03-28T10:39:23.700Z,22.37
2018-03-28T10:40:33.344Z,22.4
2018-03-28T10:41:42.334Z,22.39
2018-03-28T10:42:51.243Z,22.39
2018-03-28T10:44:00.149Z,22.36
2018-03-28T10:45:09.071Z,22.33
2018-03-28T10:46:17.913Z,22.35
2018-03-28T10:47:27.344Z,22.33
2018-03-28T10:48:36.440Z,22.36
2018-03-28T10:49:45.681Z,22.37
2018-03-28T10:50:54.778Z,22.37
2018-03-28T10:52:03.830Z,22.39
2018-03-28T10:53:13.543Z,22.39
2018-03-28T10:54:23.387Z,22.3
2018-03-28T10:55:32.506Z,22.3
2018-03-28T10:56:41.486Z,22.33
2018-03-28T10:57:50.622Z,22.33
2018-03-28T10:58:59.950Z,22.36
2018-03-28T11:00:09.101Z,22.31
2018-03-28T11:01:18.191Z,22.35
2018-03-28T11:02:27.871Z,22.33
2018-03-28T11:03:36.661Z,22.33
2018-03-28T11:04:45.576Z,22.31
2018-03-28T11:05:54.975Z,22.31
2018-03-28T11:07:04.070Z,22.35
2018-03-28T11:08:13.129Z,22.39
2018-03-28T11:09:22.205Z,22.37
2018-03-28T11:10:31.600Z,22.36
2018-03-28T11:11:40.622Z,22.36
2018-03-28T11:12:49.931Z,22.39
2018-03-28T11:13:59.478Z,22.4
2018-03-28T11:15:08.847Z,22.45
2018-03-28T11:16:18.108Z,22.43
2018-03-28T11:17:27.036Z,22.47
2018-03-28T11:18:35.956Z,22.42
2018-03-28T11:19:45.398Z,22.46
2018-03-28T11:20:54.331Z,22.55
2018-03-28T11:22:03.787Z,22.46
2018-03-28T11:23:12.478Z,22.51
2018-03-28T11:24:21.457Z,22.61
2018-03-28T11:25:30.737Z,22.58
2018-03-28T11:26:39.772Z,22.49
2018-03-28T11:27:48.742Z,22.57
2018-03-28T11:28:57.952Z,22.58
2018-03-28T11:30:07.564Z,22.62
2018-03-28T11:31:17.056Z,22.64
2018-03-28T11:32:26.008Z,22.58
2018-03-28T11:33:35.220Z,22.65
2018-03-28T11:34:44.276Z,22.52
2018-03-28T11:35:53.453Z,22.61
2018-03-28T11:37:02.447Z,22.52
2018-03-28T11:38:11.809Z,22.62
2018-03-28T11:39:21.044Z,22.57
2018-03-28T11:40:30.396Z,22.6
2018-03-28T11:41:39.287Z,22.52
2018-03-28T11:42:48.046Z,22.57
2018-03-28T11:43:57.074Z,22.6
2018-03-28T11:45:06.381Z,22.54
2018-03-28T11:46:15.630Z,22.55
2018-03-28T11:47:24.967Z,22.6
2018-03-28T11:48:34.788Z,22.61
2018-03-28T11:49:43.988Z,22.54
2018-03-28T11:50:52.936Z,22.47
2018-03-28T11:52:02.112Z,22.58
2018-03-28T11:53:11.473Z,22.55
2018-03-28T11:54:20.698Z,22.52
2018-03-28T11:55:29.732Z,22.52
2018-03-28T11:56:38.481Z,22.52
2018-03-28T11:57:47.488Z,22.52
2018-03-28T11:58:56.256Z,22.61
2018-03-28T12:00:05.754Z,22.55
2018-03-28T12:01:14.834Z,22.57
2018-03-28T12:02:23.852Z,22.52
2018-03-28T12:03:32.579Z,22.57
2018-03-28T12:04:41.882Z,22.54
2018-03-28T12:05:50.614Z,22.46
2018-03-28T12:07:00.178Z,22.42
2018-03-28T12:08:09.137Z,22.46
2018-03-28T12:09:18.116Z,22.37
2018-03-28T12:10:27.149Z,22.45
2018-03-28T12:11:36.709Z,22.52
2018-03-28T12:12:45.680Z,22.45
2018-03-28T12:13:54.919Z,22.46
2018-03-28T12:15:03.889Z,22.4
2018-03-28T12:16:12.968Z,22.46
2018-03-28T12:17:22.178Z,22.45
2018-03-28T12:18:31.397Z,22.43
2018-03-28T12:19:40.618Z,22.43
2018-03-28T12:20:49.576Z,22.47
2018-03-28T12:21:58.581Z,22.45
2018-03-28T12:23:07.581Z,22.47
2018-03-28T12:24:16.559Z,22.46
2018-03-28T12:25:25.237Z,22.4
2018-03-28T12:26:33.973Z,22.43
2018-03-28T12:27:43.263Z,22.39
2018-03-28T12:28:52.192Z,22.39
2018-03-28T12:30:01.393Z,22.4
2018-03-28T12:31:10.889Z,22.37
2018-03-28T12:32:19.656Z,22.35
2018-03-28T12:33:29.367Z,22.4
2018-03-28T12:34:39.478Z,22.4
2018-03-28T12:35:48.456Z,22.4
2018-03-28T12:36:57.374Z,22.4
2018-03-28T12:38:06.879Z,22.39
2018-03-28T12:39:16.391Z,22.35
2018-03-28T12:40:25.636Z,22.42
2018-03-28T12:41:35.076Z,22.36
2018-03-28T12:42:44.923Z,22.39
2018-03-28T12:43:53.817Z,22.4
2018-03-28T12:45:02.854Z,22.35
2018-03-28T12:46:11.688Z,22.42
2018-03-28T12:47:20.919Z,22.37
2018-03-28T12:48:30.181Z,22.33
2018-03-28T12:49:39.616Z,22.36
2018-03-28T12:50:49.050Z,22.3
2018-03-28T12:51:58.170Z,22.35
2018-03-28T12:53:07.384Z,22.33
2018-03-28T12:54:16.498Z,22.39
2018-03-28T12:55:25.862Z,22.28
2018-03-28T12:56:35.243Z,22.27
2018-03-28T12:57:44.360Z,22.31
2018-03-28T12:58:53.700Z,22.25
2018-03-28T13:00:03.455Z,22.28
2018-03-28T13:01:13.112Z,22.25
2018-03-28T13:02:22.061Z,22.27
2018-03-28T13:03:30.867Z,22.28
2018-03-28T13:04:40.204Z,22.33
2018-03-28T13:05:49.474Z,22.27
2018-03-28T13:06:58.699Z,22.27
2018-03-28T13:08:07.706Z,22.27
2018-03-28T13:09:16.983Z,22.3
2018-03-28T13:10:25.767Z,22.33
2018-03-28T13:11:35.316Z,22.27
2018-03-28T13:12:44.388Z,22.24
2018-03-28T13:13:53.436Z,22.28
2018-03-28T13:15:02.276Z,22.28
2018-03-28T13:16:11.594Z,22.3
2018-03-28T13:17:20.721Z,22.31
2018-03-28T13:18:30.025Z,22.21
2018-03-28T13:19:39.427Z,22.25
2018-03-28T13:20:48.593Z,22.28
2018-03-28T13:21:57.890Z,22.39
2018-03-28T13:23:07.563Z,22.31
2018-03-28T13:24:16.988Z,22.42
2018-03-28T13:25:26.407Z,22.37
2018-03-28T13:26:35.707Z,22.46
2018-03-28T13:27:45.000Z,22.4
2018-03-28T13:28:53.698Z,22.45
2018-03-28T13:30:02.616Z,22.45
2018-03-28T13:31:11.322Z,22.37
2018-03-28T13:32:20.237Z,22.36
2018-03-28T13:33:29.104Z,22.43
2018-03-28T13:34:38.358Z,22.49
2018-03-28T13:35:47.616Z,22.52
2018-03-28T13:36:57.226Z,22.58
2018-03-28T13:38:06.190Z,22.57
2018-03-28T13:39:15.684Z,22.61
2018-03-28T13:40:24.471Z,22.61
2018-03-28T13:41:33.694Z,22.55
2018-03-28T13:42:42.977Z,22.55
2018-03-28T13:43:51.725Z,22.55
2018-03-28T13:45:33.097Z,22.54
2018-03-28T13:46:42.144Z,22.54
2018-03-28T13:47:51.371Z,22.54
2018-03-28T13:49:00.590Z,22.54
2018-03-28T13:50:09.585Z,22.58
2018-03-28T13:51:18.393Z,22.55
2018-03-28T13:52:27.132Z,22.54
2018-03-28T13:53:36.248Z,22.58
2018-03-28T13:54:45.479Z,22.64
2018-03-28T13:55:54.778Z,22.55
2018-03-28T13:57:03.489Z,22.58
2018-03-28T13:58:12.919Z,22.58
2018-03-28T13:59:22.387Z,22.62
2018-03-28T14:00:31.347Z,22.55
2018-03-28T14:01:40.805Z,22.57
2018-03-28T14:02:49.809Z,22.58
2018-03-28T14:03:59.080Z,22.49
2018-03-28T14:05:08.815Z,22.55
2018-03-28T14:06:17.796Z,22.49
2018-03-28T14:07:27.080Z,22.6
2018-03-28T14:08:36.406Z,22.52
2018-03-28T14:09:45.653Z,22.58
2018-03-28T14:10:54.692Z,22.52
2018-03-28T14:12:04.204Z,22.47
2018-03-28T14:13:12.942Z,22.42
2018-03-28T14:14:21.953Z,22.47
2018-03-28T14:15:30.925Z,22.49
2018-03-28T14:16:40.413Z,22.46
2018-03-28T14:17:49.652Z,22.4
2018-03-28T14:18:58.640Z,22.45
2018-03-28T14:20:07.416Z,22.42
2018-03-28T14:21:16.452Z,22.45
2018-03-28T14:22:25.830Z,22.45
2018-03-28T14:23:34.967Z,22.4
2018-03-28T14:24:44.236Z,22.46
2018-03-28T14:25:53.973Z,22.36
2018-03-28T14:27:02.898Z,22.45
2018-03-28T14:28:11.790Z,22.4
2018-03-28T14:29:20.844Z,22.45
2018-03-28T14:30:30.372Z,22.45
2018-03-28T14:31:39.563Z,22.39
2018-03-28T14:32:48.660Z,22.45
2018-03-28T14:33:58.120Z,22.37
2018-03-28T14:35:07.564Z,22.46
2018-03-28T14:36:17.042Z,22.36
2018-03-28T14:37:26.884Z,22.39
2018-03-28T14:38:35.713Z,22.36
2018-03-28T14:39:45.441Z,22.33
2018-03-28T14:40:55.076Z,22.39
2018-03-28T14:42:04.686Z,22.39
2018-03-28T14:43:13.883Z,22.39
2018-03-28T14:44:23.247Z,22.4
2018-03-28T14:45:32.207Z,22.37
2018-03-28T14:46:41.624Z,22.4
2018-03-28T14:47:50.933Z,22.39
2018-03-28T14:49:00.064Z,22.28
2018-03-28T14:50:09.284Z,22.31
2018-03-28T14:51:18.480Z,22.31
2018-03-28T14:52:27.709Z,22.28
2018-03-28T14:53:36.544Z,22.36
2018-03-28T14:54:46.388Z,22.25
2018-03-28T14:55:55.186Z,22.3